createdAt,value
2023-03-17T00:00:01.428Z,12.05
2023-03-17T00:00:32.949Z,13.68
2023-03-17T00:01:04.400Z,13.52
2023-03-17T00:01:36.109Z,12.63
2023-03-17T00:02:08.627Z,13.45
2023-03-17T00:02:40.721Z,10.90
2023-03-17T00:03:32.084Z,14.75
2023-03-17T00:04:03.685Z,11.83
2023-03-17T00:04:35.171Z,13.00
2023-03-17T00:05:16.581Z,12.77
2023-03-17T00:05:48.180Z,12.95
2023-03-17T00:06:24.956Z,13.30
2023-03-17T00:06:56.384Z,11.40
2023-03-17T00:07:27.914Z,10.88
2023-03-17T00:08:01.871Z,9.30
2023-03-17T00:08:34.465Z,12.50
2023-03-17T00:09:10.329Z,11.25
2023-03-17T00:09:41.873Z,10.45
2023-03-17T00:10:14.311Z,11.88
2023-03-17T00:10:45.701Z,11.65
2023-03-17T00:11:17.747Z,11.23
2023-03-17T00:11:49.364Z,9.77
2023-03-17T00:12:20.764Z,10.98
2023-03-17T00:12:55.486Z,11.85
2023-03-17T00:13:27.543Z,10.82
2023-03-17T00:13:58.916Z,13.60
2023-03-17T00:14:30.248Z,10.27
2023-03-17T00:15:01.597Z,9.48
2023-03-17T00:15:33.025Z,11.77
2023-03-17T00:16:05.218Z,12.07
2023-03-17T00:16:38.097Z,9.60
2023-03-17T00:17:09.933Z,12.32
2023-03-17T00:17:41.772Z,8.50
2023-03-17T00:18:14.727Z,9.35
2023-03-17T00:18:46.834Z,10.70
2023-03-17T00:19:31.598Z,9.13
2023-03-17T00:20:03.183Z,11.23
2023-03-17T00:20:34.555Z,11.73
2023-03-17T00:21:05.926Z,9.57
2023-03-17T00:21:37.327Z,8.32
2023-03-17T00:22:18.053Z,9.52
2023-03-17T00:22:49.615Z,9.00
2023-03-17T00:23:22.208Z,10.35
2023-03-17T00:23:54.284Z,11.15
2023-03-17T00:24:25.675Z,11.68
2023-03-17T00:24:57.050Z,11.63
2023-03-17T00:25:29.821Z,8.80
2023-03-17T00:26:01.182Z,11.32
2023-03-17T00:26:32.559Z,8.60
2023-03-17T00:27:09.057Z,10.27
2023-03-17T00:27:40.436Z,9.02
2023-03-17T00:28:18.076Z,8.68
2023-03-17T00:28:49.557Z,8.43
2023-03-17T00:29:20.953Z,8.30
2023-03-17T00:29:52.337Z,9.88
2023-03-17T00:30:24.040Z,13.82
2023-03-17T00:30:56.971Z,8.00
2023-03-17T00:31:29.325Z,8.90
2023-03-17T00:32:00.712Z,7.70
2023-03-17T00:32:32.175Z,8.73
2023-03-17T00:33:04.516Z,6.57
2023-03-17T00:33:36.351Z,6.97
2023-03-17T00:34:10.634Z,8.57
2023-03-17T00:34:42.193Z,11.43
2023-03-17T00:35:21.546Z,10.20
2023-03-17T00:35:52.958Z,7.85
2023-03-17T00:36:26.370Z,9.57
2023-03-17T00:36:57.716Z,7.83
2023-03-17T00:37:29.039Z,8.35
2023-03-17T00:38:00.392Z,8.25
2023-03-17T00:38:31.871Z,7.57
2023-03-17T00:39:03.473Z,8.85
2023-03-17T00:39:34.871Z,8.10
2023-03-17T00:40:09.012Z,8.45
2023-03-17T00:40:40.359Z,8.10
2023-03-17T00:41:12.126Z,6.65
2023-03-17T00:41:43.497Z,8.10
2023-03-17T00:42:14.899Z,7.38
2023-03-17T00:42:46.299Z,8.63
2023-03-17T00:43:18.101Z,9.48
2023-03-17T00:43:49.640Z,8.27
2023-03-17T00:44:20.964Z,13.98
2023-03-17T00:44:52.329Z,8.73
2023-03-17T00:45:24.683Z,9.88
2023-03-17T00:45:56.045Z,7.85
2023-03-17T00:46:28.752Z,7.65
2023-03-17T00:47:00.609Z,8.90
2023-03-17T00:47:32.005Z,7.97
2023-03-17T00:48:03.680Z,8.48
2023-03-17T00:48:35.050Z,7.55
2023-03-17T00:49:13.140Z,7.57
2023-03-17T00:49:44.562Z,8.27
2023-03-17T00:50:18.333Z,7.60
2023-03-17T00:50:50.328Z,7.77
2023-03-17T00:51:21.840Z,7.63
2023-03-17T00:51:53.252Z,7.53
2023-03-17T00:52:24.615Z,7.40
2023-03-17T00:52:57.150Z,7.68
2023-03-17T00:53:28.519Z,7.25
2023-03-17T00:53:59.930Z,8.98
2023-03-17T00:54:31.303Z,7.43
2023-03-17T00:55:02.693Z,7.97
2023-03-17T00:55:34.180Z,6.45
2023-03-17T00:56:11.274Z,8.23
2023-03-17T00:56:43.259Z,9.00
2023-03-17T00:57:14.652Z,7.50
2023-03-17T00:57:46.816Z,8.05
2023-03-17T00:58:19.522Z,7.95
2023-03-17T00:58:50.876Z,7.20
2023-03-17T00:59:27.420Z,7.38
2023-03-17T00:59:58.777Z,7.10
2023-03-17T01:00:30.421Z,6.07
2023-03-17T01:01:02.209Z,8.18
2023-03-17T01:01:33.666Z,7.95
2023-03-17T01:02:05.223Z,7.10
2023-03-17T01:02:36.659Z,9.60
2023-03-17T01:03:09.302Z,6.00
2023-03-17T01:03:40.669Z,7.60
2023-03-17T01:04:12.047Z,8.75
2023-03-17T01:04:47.611Z,8.25
2023-03-17T01:05:22.866Z,8.32
2023-03-17T01:05:54.937Z,5.72
2023-03-17T01:06:26.355Z,5.68
2023-03-17T01:06:58.028Z,6.20
2023-03-17T01:07:29.392Z,6.28
2023-03-17T01:08:00.806Z,8.27
2023-03-17T01:08:32.273Z,7.32
2023-03-17T01:09:03.867Z,8.47
2023-03-17T01:09:35.228Z,8.27
2023-03-17T01:10:11.889Z,7.47
2023-03-17T01:10:43.385Z,8.57
2023-03-17T01:11:16.859Z,6.22
2023-03-17T01:11:48.242Z,6.10
2023-03-17T01:12:19.598Z,7.45
2023-03-17T01:12:51.500Z,7.35
2023-03-17T01:13:23.244Z,8.70
2023-03-17T01:13:54.580Z,8.35
2023-03-17T01:14:25.968Z,10.23
2023-03-17T01:14:57.314Z,6.22
2023-03-17T01:15:30.262Z,7.78
2023-03-17T01:16:01.637Z,6.35
2023-03-17T01:16:33.126Z,7.23
2023-03-17T01:17:06.261Z,8.10
2023-03-17T01:17:37.634Z,9.48
2023-03-17T01:18:10.170Z,10.75
2023-03-17T01:18:41.572Z,9.68
2023-03-17T01:19:13.519Z,10.45
2023-03-17T01:19:46.143Z,8.98
2023-03-17T01:20:22.111Z,8.20
2023-03-17T01:20:53.484Z,9.85
2023-03-17T01:21:24.832Z,10.32
2023-03-17T01:21:56.206Z,9.85
2023-03-17T01:22:27.605Z,11.73
2023-03-17T01:22:59.619Z,13.13
2023-03-17T01:23:31.064Z,12.65
2023-03-17T01:24:02.447Z,13.20
2023-03-17T01:24:33.782Z,13.48
2023-03-17T01:25:05.416Z,13.15
2023-03-17T01:25:37.461Z,11.40
2023-03-17T01:26:09.013Z,11.48
2023-03-17T01:26:40.667Z,13.73
2023-03-17T01:27:12.150Z,11.40
2023-03-17T01:27:44.328Z,10.52
2023-03-17T01:28:17.548Z,11.82
2023-03-17T01:28:48.887Z,9.05
2023-03-17T01:29:20.225Z,11.07
2023-03-17T01:29:54.699Z,8.82
2023-03-17T01:30:27.955Z,11.10
2023-03-17T01:30:59.754Z,8.52
2023-03-17T01:31:31.138Z,9.43
2023-03-17T01:32:02.540Z,8.98
2023-03-17T01:32:34.064Z,7.93
2023-03-17T01:33:06.667Z,9.15
2023-03-17T01:33:38.465Z,7.47
2023-03-17T01:34:09.853Z,8.02
2023-03-17T01:34:41.184Z,7.63
2023-03-17T01:35:13.226Z,8.32
2023-03-17T01:35:44.597Z,6.82
2023-03-17T01:36:15.971Z,7.10
2023-03-17T01:36:47.377Z,6.70
2023-03-17T01:37:18.732Z,6.07
2023-03-17T01:37:50.323Z,5.65
2023-03-17T01:38:21.680Z,11.15
2023-03-17T01:38:53.128Z,7.25
2023-03-17T01:39:24.494Z,7.60
2023-03-17T01:39:55.928Z,7.45
2023-03-17T01:40:29.893Z,6.70
2023-03-17T01:41:01.354Z,5.38
2023-03-17T01:41:35.878Z,7.88
2023-03-17T01:42:07.308Z,8.77
2023-03-17T01:42:39.406Z,7.82
2023-03-17T01:43:10.734Z,6.60
2023-03-17T01:43:42.072Z,5.65
2023-03-17T01:44:17.032Z,7.43
2023-03-17T01:45:01.709Z,5.22
2023-03-17T01:45:51.718Z,6.40
2023-03-17T01:46:24.832Z,6.45
2023-03-17T01:46:56.207Z,5.40
2023-03-17T01:47:28.334Z,7.18
2023-03-17T01:47:59.669Z,8.70
2023-03-17T01:48:32.540Z,7.10
2023-03-17T01:49:22.400Z,8.15
2023-03-17T01:49:53.772Z,5.90
2023-03-17T01:50:25.189Z,6.53
2023-03-17T01:50:56.680Z,6.43
2023-03-17T01:51:43.156Z,6.68
2023-03-17T01:52:17.310Z,6.00
2023-03-17T01:52:48.659Z,5.28
2023-03-17T01:53:20.568Z,5.65
2023-03-17T01:53:52.577Z,6.95
2023-03-17T01:54:30.491Z,5.05
2023-03-17T01:55:06.459Z,5.72
2023-03-17T01:55:38.271Z,5.28
2023-03-17T01:56:09.730Z,5.78
2023-03-17T01:56:42.136Z,5.25
2023-03-17T01:57:18.376Z,4.55
2023-03-17T01:57:51.302Z,6.30
2023-03-17T01:58:23.867Z,6.97
2023-03-17T01:58:56.765Z,5.57
2023-03-17T01:59:31.621Z,5.78
2023-03-17T02:00:05.785Z,5.43
2023-03-17T02:00:37.158Z,4.75
2023-03-17T02:01:08.608Z,7.72
2023-03-17T02:01:42.836Z,6.17
2023-03-17T02:02:16.742Z,5.45
2023-03-17T02:02:52.139Z,5.78
2023-03-17T02:03:23.769Z,7.82
2023-03-17T02:03:55.329Z,5.78
2023-03-17T02:04:26.784Z,8.55
2023-03-17T02:04:58.636Z,4.97
2023-03-17T02:05:30.698Z,5.30
2023-03-17T02:06:02.402Z,7.60
2023-03-17T02:06:34.932Z,6.90
2023-03-17T02:07:07.479Z,7.93
2023-03-17T02:07:39.952Z,5.90
2023-03-17T02:08:12.471Z,5.65
2023-03-17T02:08:43.815Z,6.00
2023-03-17T02:09:15.298Z,5.85
2023-03-17T02:09:47.203Z,5.75
2023-03-17T02:10:19.800Z,7.47
2023-03-17T02:10:51.153Z,7.65
2023-03-17T02:11:22.537Z,5.93
2023-03-17T02:11:54.259Z,7.20
2023-03-17T02:12:27.248Z,6.90
2023-03-17T02:13:00.096Z,5.72
2023-03-17T02:13:31.768Z,8.07
2023-03-17T02:14:03.140Z,6.45
2023-03-17T02:14:34.603Z,7.53
2023-03-17T02:15:06.209Z,7.80
2023-03-17T02:15:43.142Z,6.70
2023-03-17T02:16:15.595Z,9.27
2023-03-17T02:16:47.007Z,6.25
2023-03-17T02:17:18.972Z,8.40
2023-03-17T02:17:50.550Z,8.85
2023-03-17T02:18:22.367Z,7.13
2023-03-17T02:18:53.753Z,6.45
2023-03-17T02:19:25.183Z,7.03
2023-03-17T02:19:56.900Z,10.50
2023-03-17T02:20:28.449Z,8.27
2023-03-17T02:21:38.720Z,10.85
2023-03-17T02:22:10.442Z,7.33
2023-03-17T02:22:42.978Z,7.68
2023-03-17T02:23:19.076Z,7.72
2023-03-17T02:23:50.525Z,6.47
2023-03-17T02:24:24.454Z,8.18
2023-03-17T02:24:58.282Z,8.20
2023-03-17T02:25:30.028Z,9.52
2023-03-17T02:26:01.444Z,9.73
2023-03-17T02:26:34.113Z,9.65
2023-03-17T02:27:19.660Z,14.57
2023-03-17T02:27:52.492Z,12.82
2023-03-17T02:28:27.578Z,13.50
2023-03-17T02:28:58.933Z,10.70
2023-03-17T02:29:32.159Z,9.57
2023-03-17T02:30:04.512Z,10.77
2023-03-17T02:30:36.224Z,11.38
2023-03-17T02:31:08.246Z,16.48
2023-03-17T02:31:39.683Z,23.00
2023-03-17T02:32:11.101Z,13.60
2023-03-17T02:32:42.482Z,12.63
2023-03-17T02:33:13.902Z,11.43
2023-03-17T02:33:45.285Z,11.07
2023-03-17T02:34:16.680Z,11.15
2023-03-17T02:34:48.563Z,13.88
2023-03-17T02:35:20.134Z,16.53
2023-03-17T02:35:51.468Z,17.23
2023-03-17T02:36:23.077Z,9.93
2023-03-17T02:36:54.503Z,12.27
2023-03-17T02:37:25.893Z,9.60
2023-03-17T02:37:57.223Z,9.68
2023-03-17T02:38:28.568Z,10.35
2023-03-17T02:38:59.890Z,13.98
2023-03-17T02:39:31.643Z,11.57
2023-03-17T02:40:03.275Z,9.97
2023-03-17T02:40:34.666Z,12.90
2023-03-17T02:41:06.074Z,13.85
2023-03-17T02:41:37.433Z,13.88
2023-03-17T02:42:09.316Z,12.82
2023-03-17T02:42:40.938Z,16.27
2023-03-17T02:43:12.310Z,14.70
2023-03-17T02:43:43.630Z,14.40
2023-03-17T02:44:14.992Z,18.42
2023-03-17T02:44:46.323Z,17.33
2023-03-17T02:45:17.701Z,21.58
2023-03-17T02:45:49.148Z,14.63
2023-03-17T02:46:20.575Z,17.35
2023-03-17T02:46:51.996Z,18.20
2023-03-17T02:47:23.701Z,16.52
2023-03-17T02:47:55.281Z,14.85
2023-03-17T02:48:27.004Z,17.63
2023-03-17T02:48:58.510Z,17.33
2023-03-17T02:49:30.503Z,15.60
2023-03-17T02:50:01.867Z,19.05
2023-03-17T02:50:33.318Z,17.55
2023-03-17T02:51:04.961Z,16.23
2023-03-17T02:51:36.338Z,17.40
2023-03-17T02:52:08.207Z,21.90
2023-03-17T02:52:39.593Z,16.17
2023-03-17T02:53:11.005Z,15.93
2023-03-17T02:53:42.373Z,15.02
2023-03-17T02:54:13.713Z,15.27
2023-03-17T02:54:45.110Z,16.52
2023-03-17T02:55:16.646Z,17.95
2023-03-17T02:55:48.021Z,18.30
2023-03-17T02:56:19.367Z,16.95
2023-03-17T02:56:50.991Z,16.70
2023-03-17T02:57:22.346Z,16.25
2023-03-17T02:57:53.731Z,17.45
2023-03-17T02:58:25.136Z,15.73
2023-03-17T02:58:56.461Z,16.48
2023-03-17T02:59:27.839Z,17.27
2023-03-17T02:59:59.201Z,15.25
2023-03-17T03:00:30.972Z,13.63
2023-03-17T03:01:02.584Z,15.20
2023-03-17T03:01:34.196Z,17.92
2023-03-17T03:02:05.645Z,14.25
2023-03-17T03:02:37.501Z,14.50
2023-03-17T03:03:08.908Z,14.57
2023-03-17T03:03:40.270Z,13.85
2023-03-17T03:04:11.606Z,12.23
2023-03-17T03:04:43.308Z,13.33
2023-03-17T03:05:14.677Z,13.75
2023-03-17T03:05:46.663Z,12.55
2023-03-17T03:06:18.019Z,12.85
2023-03-17T03:06:49.441Z,13.82
2023-03-17T03:07:20.795Z,13.80
2023-03-17T03:07:52.335Z,13.68
2023-03-17T03:08:23.918Z,16.88
2023-03-17T03:08:55.317Z,12.77
2023-03-17T03:09:26.673Z,11.70
2023-03-17T03:09:58.157Z,11.88
2023-03-17T03:10:29.756Z,12.33
2023-03-17T03:11:01.301Z,13.35
2023-03-17T03:11:32.638Z,13.68
2023-03-17T03:12:04.579Z,11.80
2023-03-17T03:12:35.960Z,14.38
2023-03-17T03:13:07.338Z,14.65
2023-03-17T03:13:38.707Z,13.13
2023-03-17T03:14:10.482Z,13.98
2023-03-17T03:14:41.926Z,12.82
2023-03-17T03:15:13.323Z,13.95
2023-03-17T03:15:44.695Z,11.57
2023-03-17T03:16:16.318Z,11.40
2023-03-17T03:16:47.829Z,11.15
2023-03-17T03:17:20.404Z,11.38
2023-03-17T03:17:51.761Z,11.23
2023-03-17T03:18:23.460Z,10.18
2023-03-17T03:18:54.922Z,10.15
2023-03-17T03:19:26.523Z,11.90
2023-03-17T03:19:57.877Z,11.13
2023-03-17T03:20:29.479Z,11.73
2023-03-17T03:21:01.013Z,12.13
2023-03-17T03:21:32.414Z,13.77
2023-03-17T03:22:03.858Z,14.10
2023-03-17T03:22:35.242Z,11.18
2023-03-17T03:23:06.586Z,15.65
2023-03-17T03:23:37.938Z,11.50
2023-03-17T03:24:09.334Z,13.82
2023-03-17T03:24:40.821Z,13.98
2023-03-17T03:25:12.182Z,11.95
2023-03-17T03:25:43.552Z,11.73
2023-03-17T03:26:15.266Z,15.52
2023-03-17T03:26:46.788Z,12.68
2023-03-17T03:27:18.168Z,13.30
2023-03-17T03:27:49.555Z,12.48
2023-03-17T03:28:20.916Z,12.63
2023-03-17T03:28:52.316Z,13.52
2023-03-17T03:29:23.674Z,13.68
2023-03-17T03:29:55.062Z,14.07
2023-03-17T03:30:26.418Z,14.82
2023-03-17T03:30:57.838Z,14.63
2023-03-17T03:31:29.247Z,14.13
2023-03-17T03:32:00.671Z,16.25
2023-03-17T03:32:32.066Z,16.48
2023-03-17T03:33:03.822Z,17.48
2023-03-17T03:33:35.340Z,15.73
2023-03-17T03:34:06.685Z,15.35
2023-03-17T03:34:38.046Z,14.48
2023-03-17T03:35:09.594Z,13.47
2023-03-17T03:35:41.113Z,16.38
2023-03-17T03:36:12.543Z,13.30
2023-03-17T03:36:43.964Z,14.43
2023-03-17T03:37:15.365Z,14.70
2023-03-17T03:37:46.799Z,16.58
2023-03-17T03:38:18.186Z,13.25
2023-03-17T03:38:49.579Z,14.52
2023-03-17T03:39:20.941Z,13.65
2023-03-17T03:39:52.342Z,15.77
2023-03-17T03:40:24.378Z,14.83
2023-03-17T03:40:55.760Z,16.48
2023-03-17T03:41:27.111Z,14.37
2023-03-17T03:41:58.597Z,13.38
2023-03-17T03:42:29.981Z,13.13
2023-03-17T03:43:07.530Z,14.65
2023-03-17T03:43:44.416Z,15.63
2023-03-17T03:44:15.808Z,14.85
2023-03-17T03:44:47.162Z,14.60
2023-03-17T03:45:18.744Z,14.93
2023-03-17T03:45:50.198Z,13.45
2023-03-17T03:46:21.603Z,15.02
2023-03-17T03:46:53.037Z,14.15
2023-03-17T03:47:24.453Z,14.07
2023-03-17T03:47:56.175Z,14.30
2023-03-17T03:48:27.525Z,14.10
2023-03-17T03:48:58.860Z,15.13
2023-03-17T03:49:30.287Z,16.40
2023-03-17T03:50:01.806Z,14.82
2023-03-17T03:50:33.206Z,15.75
2023-03-17T03:51:04.643Z,13.00
2023-03-17T03:51:36.005Z,14.68
2023-03-17T03:52:07.448Z,13.32
2023-03-17T03:52:38.905Z,16.23
2023-03-17T03:53:10.455Z,13.90
2023-03-17T03:53:41.850Z,13.35
2023-03-17T03:54:13.263Z,15.93
2023-03-17T03:54:44.676Z,14.18
2023-03-17T03:55:16.222Z,12.15
2023-03-17T03:55:47.652Z,13.07
2023-03-17T03:56:19.035Z,12.38
2023-03-17T03:56:50.482Z,14.65
2023-03-17T03:57:21.863Z,12.90
2023-03-17T03:57:53.297Z,12.70
2023-03-17T03:58:24.664Z,12.03
2023-03-17T03:58:56.036Z,12.00
2023-03-17T03:59:27.384Z,11.52
2023-03-17T03:59:58.751Z,11.45
2023-03-17T04:00:30.292Z,10.50
2023-03-17T04:01:05.378Z,12.40
2023-03-17T04:01:36.994Z,11.07
2023-03-17T04:02:09.579Z,11.00
2023-03-17T04:02:41.917Z,11.93
2023-03-17T04:03:13.949Z,12.45
2023-03-17T04:03:45.298Z,11.70
2023-03-17T04:04:16.707Z,13.48
2023-03-17T04:04:48.148Z,12.15
2023-03-17T04:05:19.627Z,12.88
2023-03-17T04:05:50.953Z,13.27
2023-03-17T04:06:22.327Z,11.05
2023-03-17T04:06:53.692Z,14.13
2023-03-17T04:07:25.341Z,15.38
2023-03-17T04:07:56.719Z,13.73
2023-03-17T04:08:28.100Z,14.13
2023-03-17T04:08:59.454Z,14.98
2023-03-17T04:09:30.800Z,14.55
2023-03-17T04:10:02.572Z,14.60
2023-03-17T04:10:34.200Z,14.38
2023-03-17T04:11:05.596Z,15.15
2023-03-17T04:11:36.942Z,15.05
2023-03-17T04:12:08.684Z,13.13
2023-03-17T04:12:40.046Z,14.40
2023-03-17T04:13:11.382Z,14.85
2023-03-17T04:13:42.742Z,14.55
2023-03-17T04:14:14.150Z,14.15
2023-03-17T04:14:45.487Z,16.02
2023-03-17T04:15:17.552Z,14.48
2023-03-17T04:15:48.985Z,14.23
2023-03-17T04:16:20.423Z,16.05
2023-03-17T04:16:51.791Z,15.57
2023-03-17T04:17:23.154Z,14.30
2023-03-17T04:17:54.495Z,13.70
2023-03-17T04:18:25.843Z,12.73
2023-03-17T04:18:57.520Z,14.88
2023-03-17T04:19:29.757Z,12.35
2023-03-17T04:20:01.174Z,12.32
2023-03-17T04:20:32.986Z,12.43
2023-03-17T04:21:04.877Z,14.40
2023-03-17T04:21:36.236Z,12.77
2023-03-17T04:22:07.930Z,12.20
2023-03-17T04:22:39.482Z,12.95
2023-03-17T04:23:10.805Z,13.80
2023-03-17T04:23:42.170Z,16.15
2023-03-17T04:24:13.633Z,13.10
2023-03-17T04:24:45.049Z,12.52
2023-03-17T04:25:16.446Z,18.15
2023-03-17T04:25:49.722Z,11.98
2023-03-17T04:26:21.105Z,12.48
2023-03-17T04:26:52.456Z,13.05
2023-03-17T04:27:23.818Z,10.85
2023-03-17T04:27:55.175Z,15.38
2023-03-17T04:28:26.598Z,12.90
2023-03-17T04:28:58.128Z,15.23
2023-03-17T04:29:29.723Z,13.17
2023-03-17T04:30:01.052Z,13.38
2023-03-17T04:30:32.846Z,12.30
2023-03-17T04:31:04.531Z,13.98
2023-03-17T04:31:36.432Z,14.75
2023-03-17T04:32:07.901Z,12.68
2023-03-17T04:32:39.360Z,13.50
2023-03-17T04:33:10.829Z,14.55
2023-03-17T04:33:42.206Z,12.43
2023-03-17T04:34:15.166Z,11.52
2023-03-17T04:34:46.597Z,12.75
2023-03-17T04:35:19.116Z,12.00
2023-03-17T04:35:50.575Z,13.23
2023-03-17T04:36:22.803Z,14.00
2023-03-17T04:36:54.230Z,14.57
2023-03-17T04:37:25.680Z,9.95
2023-03-17T04:37:57.060Z,13.63
2023-03-17T04:38:28.453Z,12.38
2023-03-17T04:38:59.878Z,11.50
2023-03-17T04:39:31.265Z,10.52
2023-03-17T04:40:02.611Z,12.00
2023-03-17T04:40:33.957Z,12.60
2023-03-17T04:41:05.324Z,13.18
2023-03-17T04:41:36.765Z,12.50
2023-03-17T04:42:08.263Z,12.52
2023-03-17T04:42:40.059Z,11.38
2023-03-17T04:43:11.449Z,11.48
2023-03-17T04:43:42.887Z,12.95
2023-03-17T04:44:14.229Z,13.95
2023-03-17T04:44:45.612Z,12.90
2023-03-17T04:45:16.979Z,12.52
2023-03-17T04:45:48.400Z,13.50
2023-03-17T04:46:19.775Z,14.00
2023-03-17T04:46:51.175Z,13.47
2023-03-17T04:47:22.542Z,13.30
2023-03-17T04:47:53.909Z,13.15
2023-03-17T04:48:25.282Z,12.65
2023-03-17T04:48:56.750Z,11.07
2023-03-17T04:49:28.477Z,11.27
2023-03-17T04:49:59.851Z,13.10
2023-03-17T04:50:31.365Z,12.93
2023-03-17T04:51:02.972Z,13.10
2023-03-17T04:51:34.596Z,12.73
2023-03-17T04:52:06.052Z,13.98
2023-03-17T04:52:37.825Z,11.63
2023-03-17T04:53:09.190Z,13.98
2023-03-17T04:53:40.629Z,12.90
2023-03-17T04:54:12.079Z,14.25
2023-03-17T04:54:43.694Z,14.52
2023-03-17T04:55:15.131Z,14.63
2023-03-17T04:55:46.540Z,13.90
2023-03-17T04:56:17.943Z,14.15
2023-03-17T04:56:49.344Z,14.02
2023-03-17T04:57:20.716Z,12.55
2023-03-17T04:57:52.070Z,13.27
2023-03-17T04:58:30.766Z,13.82
2023-03-17T04:59:02.628Z,12.50
2023-03-17T04:59:34.052Z,12.55
2023-03-17T05:00:06.360Z,13.95
2023-03-17T05:00:37.734Z,12.77
2023-03-17T05:01:09.178Z,12.43
2023-03-17T05:01:40.598Z,13.47
2023-03-17T05:02:11.966Z,11.43
2023-03-17T05:02:43.383Z,10.45
2023-03-17T05:03:26.339Z,13.15
2023-03-17T05:03:58.360Z,13.93
2023-03-17T05:04:31.911Z,16.27
2023-03-17T05:05:03.788Z,12.60
2023-03-17T05:05:35.376Z,14.10
2023-03-17T05:06:06.867Z,13.63
2023-03-17T05:06:38.290Z,13.23
2023-03-17T05:07:09.685Z,12.23
2023-03-17T05:07:41.025Z,11.30
2023-03-17T05:08:12.510Z,14.33
2023-03-17T05:08:44.178Z,13.30
2023-03-17T05:09:15.533Z,11.57
2023-03-17T05:09:46.972Z,13.65
2023-03-17T05:10:18.352Z,12.67
2023-03-17T05:10:49.824Z,12.98
2023-03-17T05:11:21.285Z,14.18
2023-03-17T05:11:52.709Z,13.70
2023-03-17T05:12:24.110Z,13.60
2023-03-17T05:12:55.661Z,11.27
2023-03-17T05:13:27.088Z,11.70
2023-03-17T05:13:58.438Z,12.23
2023-03-17T05:14:29.799Z,12.57
2023-03-17T05:15:01.173Z,12.55
2023-03-17T05:15:32.523Z,12.13
2023-03-17T05:16:04.046Z,10.85
2023-03-17T05:16:35.446Z,13.20
2023-03-17T05:17:06.887Z,13.70
2023-03-17T05:17:38.262Z,14.68
2023-03-17T05:18:09.688Z,12.10
2023-03-17T05:18:41.052Z,13.05
2023-03-17T05:19:12.475Z,12.93
2023-03-17T05:19:43.867Z,13.10
2023-03-17T05:20:15.415Z,12.02
2023-03-17T05:20:46.828Z,13.15
2023-03-17T05:21:18.261Z,13.88
2023-03-17T05:21:49.641Z,12.40
2023-03-17T05:22:20.997Z,12.95
2023-03-17T05:22:52.409Z,12.55
2023-03-17T05:23:23.784Z,13.07
2023-03-17T05:23:55.196Z,13.52
2023-03-17T05:24:26.609Z,11.80
2023-03-17T05:24:58.030Z,12.63
2023-03-17T05:25:29.507Z,15.10
2023-03-17T05:26:00.943Z,15.13
2023-03-17T05:26:32.382Z,13.07
2023-03-17T05:27:03.810Z,11.45
2023-03-17T05:27:35.188Z,13.65
2023-03-17T05:28:06.579Z,13.30
2023-03-17T05:28:38.106Z,12.82
2023-03-17T05:29:09.450Z,11.77
2023-03-17T05:29:40.822Z,12.63
2023-03-17T05:30:12.483Z,13.27
2023-03-17T05:30:43.910Z,12.80
2023-03-17T05:31:15.335Z,13.50
2023-03-17T05:31:46.708Z,11.57
2023-03-17T05:32:18.326Z,11.57
2023-03-17T05:32:49.713Z,11.98
2023-03-17T05:33:21.118Z,12.25
2023-03-17T05:33:52.516Z,11.18
2023-03-17T05:34:23.852Z,12.60
2023-03-17T05:34:55.201Z,12.60
2023-03-17T05:35:26.604Z,15.00
2023-03-17T05:35:58.080Z,16.77
2023-03-17T05:36:29.472Z,19.00
2023-03-17T05:37:00.803Z,18.15
2023-03-17T05:37:32.172Z,18.10
2023-03-17T05:38:03.537Z,16.85
2023-03-17T05:38:34.863Z,15.13
2023-03-17T05:39:06.213Z,14.18
2023-03-17T05:39:37.551Z,18.35
2023-03-17T05:40:09.688Z,18.42
2023-03-17T05:40:41.100Z,17.83
2023-03-17T05:41:12.464Z,16.00
2023-03-17T05:41:43.802Z,16.02
2023-03-17T05:42:15.162Z,15.23
2023-03-17T05:42:46.746Z,15.47
2023-03-17T05:43:18.334Z,14.38
2023-03-17T05:43:49.735Z,16.67
2023-03-17T05:44:21.106Z,14.93
2023-03-17T05:44:52.461Z,14.27
2023-03-17T05:45:23.833Z,13.65
2023-03-17T05:45:55.204Z,14.93
2023-03-17T05:46:26.640Z,13.95
2023-03-17T05:46:58.037Z,12.45
2023-03-17T05:47:29.375Z,13.07
2023-03-17T05:48:00.755Z,14.18
2023-03-17T05:48:32.576Z,12.88
2023-03-17T05:49:04.039Z,12.68
2023-03-17T05:49:35.370Z,13.70
2023-03-17T05:50:06.852Z,12.98
2023-03-17T05:50:38.229Z,16.38
2023-03-17T05:51:09.607Z,13.23
2023-03-17T05:51:40.984Z,13.40
2023-03-17T05:52:12.381Z,14.23
2023-03-17T05:52:43.729Z,15.20
2023-03-17T05:53:15.289Z,14.35
2023-03-17T05:53:46.664Z,16.10
2023-03-17T05:54:18.174Z,15.13
2023-03-17T05:54:49.529Z,17.52
2023-03-17T05:55:20.875Z,17.90
2023-03-17T05:55:52.246Z,24.73
2023-03-17T05:56:23.661Z,19.88
2023-03-17T05:56:55.081Z,20.02
2023-03-17T05:57:26.447Z,24.33
2023-03-17T05:57:57.800Z,25.55
2023-03-17T05:58:29.176Z,27.20
2023-03-17T05:59:01.364Z,22.10
2023-03-17T05:59:32.701Z,22.17
2023-03-17T06:00:04.342Z,20.25
2023-03-17T06:00:36.044Z,25.35
2023-03-17T06:01:07.426Z,20.37
2023-03-17T06:01:38.777Z,16.05
2023-03-17T06:02:10.498Z,16.92
2023-03-17T06:02:42.119Z,15.60
2023-03-17T06:03:13.866Z,14.63
2023-03-17T06:03:45.411Z,14.95
2023-03-17T06:04:16.821Z,12.77
2023-03-17T06:04:48.237Z,14.43
2023-03-17T06:05:19.686Z,13.18
2023-03-17T06:05:51.068Z,14.98
2023-03-17T06:06:22.865Z,12.93
2023-03-17T06:06:54.190Z,13.40
2023-03-17T06:07:25.648Z,11.60
2023-03-17T06:07:57.086Z,14.13
2023-03-17T06:08:28.517Z,11.07
2023-03-17T06:08:59.939Z,12.90
2023-03-17T06:09:31.568Z,10.38
2023-03-17T06:10:03.754Z,11.10
2023-03-17T06:10:35.134Z,10.02
2023-03-17T06:11:06.536Z,11.15
2023-03-17T06:11:37.910Z,14.50
2023-03-17T06:12:09.852Z,13.15
2023-03-17T06:12:41.238Z,13.25
2023-03-17T06:13:12.619Z,11.80
2023-03-17T06:13:43.987Z,13.25
2023-03-17T06:14:15.348Z,13.23
2023-03-17T06:14:46.859Z,13.50
2023-03-17T06:15:18.340Z,12.60
2023-03-17T06:15:50.500Z,10.57
2023-03-17T06:16:21.883Z,11.48
2023-03-17T06:16:53.299Z,10.87
2023-03-17T06:17:24.665Z,11.07
2023-03-17T06:17:56.072Z,11.55
2023-03-17T06:18:27.412Z,9.25
2023-03-17T06:18:58.892Z,11.60
2023-03-17T06:19:30.244Z,10.30
2023-03-17T06:20:01.633Z,11.57
2023-03-17T06:20:33.465Z,10.65
2023-03-17T06:21:04.946Z,11.55
2023-03-17T06:21:36.361Z,12.57
2023-03-17T06:22:07.775Z,11.32
2023-03-17T06:22:46.275Z,12.13
2023-03-17T06:23:23.213Z,11.75
2023-03-17T06:23:54.603Z,11.85
2023-03-17T06:24:25.990Z,11.77
2023-03-17T06:24:57.343Z,12.55
2023-03-17T06:25:28.938Z,13.95
2023-03-17T06:26:00.941Z,12.55
2023-03-17T06:26:32.295Z,12.15
2023-03-17T06:27:03.690Z,13.60
2023-03-17T06:27:35.066Z,15.18
2023-03-17T06:28:06.458Z,11.65
2023-03-17T06:28:38.145Z,15.73
2023-03-17T06:29:09.944Z,12.25
2023-03-17T06:29:41.339Z,12.40
2023-03-17T06:30:12.885Z,11.13
2023-03-17T06:30:44.329Z,13.47
2023-03-17T06:31:15.757Z,11.70
2023-03-17T06:31:47.177Z,12.55
2023-03-17T06:32:20.969Z,13.65
2023-03-17T06:32:52.577Z,11.55
2023-03-17T06:33:24.471Z,11.32
2023-03-17T06:33:55.947Z,10.60
2023-03-17T06:34:27.270Z,12.45
2023-03-17T06:34:58.644Z,10.98
2023-03-17T06:35:31.004Z,11.10
2023-03-17T06:36:02.639Z,10.27
2023-03-17T06:36:33.998Z,11.10
2023-03-17T06:37:05.418Z,11.75
2023-03-17T06:37:36.755Z,11.05
2023-03-17T06:38:08.085Z,14.40
2023-03-17T06:38:39.631Z,11.32
2023-03-17T06:39:11.394Z,12.65
2023-03-17T06:39:42.938Z,11.32
2023-03-17T06:40:14.450Z,10.35
2023-03-17T06:40:45.798Z,11.68
2023-03-17T06:41:17.143Z,11.85
2023-03-17T06:41:48.587Z,13.35
2023-03-17T06:42:19.936Z,14.02
2023-03-17T06:42:51.349Z,17.25
2023-03-17T06:43:22.742Z,10.90
2023-03-17T06:43:54.086Z,10.48
2023-03-17T06:44:25.462Z,10.55
2023-03-17T06:44:56.870Z,10.80
2023-03-17T06:45:28.793Z,11.63
2023-03-17T06:46:00.267Z,11.27
2023-03-17T06:46:32.177Z,10.65
2023-03-17T06:47:03.669Z,10.48
2023-03-17T06:47:35.502Z,10.90
2023-03-17T06:48:06.898Z,10.88
2023-03-17T06:48:53.507Z,10.57
2023-03-17T06:49:25.015Z,11.38
2023-03-17T06:49:56.392Z,11.90
2023-03-17T06:50:27.802Z,11.57
2023-03-17T06:50:59.171Z,11.55
2023-03-17T06:51:31.093Z,11.07
2023-03-17T06:52:02.627Z,11.20
2023-03-17T06:52:36.462Z,11.32
2023-03-17T06:53:07.908Z,11.50
2023-03-17T06:53:39.273Z,11.52
2023-03-17T06:54:10.653Z,13.30
2023-03-17T06:54:42.139Z,11.38
2023-03-17T06:55:13.534Z,12.55
2023-03-17T06:55:44.954Z,13.18
2023-03-17T06:56:29.200Z,11.50